Time;durP1;ratioP1;P1;durP2;ratioP2;P2;SDS_P1;SDS_P2;PMS_P1;PMS_P2;Temp;Humidity;BMP_temperature;BMP_pressure;BME280_temperature;BME280_humidity;BME280_pressure;Samples;Min_cycle;Max_cycle;Signal;HPM_P1;HPM_P2
2021/07/11 00:02:11;;;;;;;11.88;7.60;;;;;;;;;;5063330;28;20049;-71
2021/07/11 00:04:37;;;;;;;9.63;7.57;;;;;;;;;;5058887;28;20049;-71
2021/07/11 00:07:03;;;;;;;10.10;7.82;;;;;;;;;;5041693;28;20054;-71
2021/07/11 00:09:30;;;;;;;13.13;7.68;;;;;;;;;;5062550;28;20416;-72
2021/07/11 00:11:56;;;;;;;11.13;7.53;;;;;;;;;;5060727;28;20519;-71
2021/07/11 00:14:22;;;;;;;8.73;7.15;;;;;;;;;;5059875;28;20123;-71
2021/07/11 00:16:48;;;;;;;11.52;8.32;;;;;;;;;;5060364;28;20049;-72
2021/07/11 00:19:15;;;;;;;13.25;8.98;;;;;;;;;;5065409;28;20169;-71
2021/07/11 00:21:41;;;;;;;10.93;8.48;;;;;;;;;;5062190;28;20054;-72
2021/07/11 00:24:07;;;;;;;13.23;8.88;;;;;;;;;;5064999;28;20062;-72
2021/07/11 00:26:33;;;;;;;15.38;9.13;;;;;;;;;;5065145;28;20101;-71
2021/07/11 00:28:59;;;;;;;12.27;9.68;;;;;;;;;;5044575;28;20437;-71
2021/07/11 00:31:26;;;;;;;14.23;8.60;;;;;;;;;;5061876;28;20126;-71
2021/07/11 00:33:52;;;;;;;11.90;8.52;;;;;;;;;;5064428;28;20071;-71
2021/07/11 00:36:18;;;;;;;13.20;9.35;;;;;;;;;;5047066;28;20492;-72
2021/07/11 00:38:44;;;;;;;13.15;9.70;;;;;;;;;;5061298;28;20053;-71
2021/07/11 00:41:10;;;;;;;12.00;9.68;;;;;;;;;;5060599;28;20154;-71
2021/07/11 00:43:37;;;;;;;11.68;9.15;;;;;;;;;;5059344;28;20041;-72
2021/07/11 00:46:03;;;;;;;11.85;9.98;;;;;;;;;;5061391;28;20094;-71
2021/07/11 00:48:29;;;;;;;13.27;10.20;;;;;;;;;;5063872;28;20044;-72
2021/07/11 00:50:57;;;;;;;13.23;9.40;;;;;;;;;;5050573;28;20119;-71
2021/07/11 00:53:23;;;;;;;11.23;9.25;;;;;;;;;;5066523;28;20140;-71
2021/07/11 00:55:51;;;;;;;11.38;9.18;;;;;;;;;;5066040;28;20526;-71
2021/07/11 00:58:18;;;;;;;12.32;9.82;;;;;;;;;;5044130;28;20500;-71
2021/07/11 01:00:48;;;;;;;11.30;9.50;;;;;;;;;;5061821;28;20064;-71
2021/07/11 01:03:23;;;;;;;11.98;9.70;;;;;;;;;;5057144;28;20053;-72
2021/07/11 01:05:49;;;;;;;13.98;9.45;;;;;;;;;;5062180;28;21376;-72
2021/07/11 01:08:18;;;;;;;13.85;8.55;;;;;;;;;;5064279;28;20053;-71
2021/07/11 01:10:46;;;;;;;10.35;8.73;;;;;;;;;;5066235;28;20044;-71
2021/07/11 01:13:14;;;;;;;17.45;8.93;;;;;;;;;;5062136;28;20040;-72
2021/07/11 01:15:45;;;;;;;13.82;8.77;;;;;;;;;;5069624;28;20048;-71
2021/07/11 01:18:12;;;;;;;13.93;9.43;;;;;;;;;;5063026;28;20048;-71
2021/07/11 01:20:41;;;;;;;14.05;10.02;;;;;;;;;;5061121;28;20064;-72
2021/07/11 01:23:08;;;;;;;14.55;10.25;;;;;;;;;;5061861;28;20055;-71
2021/07/11 01:25:36;;;;;;;14.05;11.07;;;;;;;;;;5066254;28;20040;-71
2021/07/11 01:28:04;;;;;;;15.13;10.55;;;;;;;;;;5059170;28;20037;-71
2021/07/11 01:30:30;;;;;;;13.95;11.40;;;;;;;;;;5063623;28;20064;-71
2021/07/11 01:32:57;;;;;;;16.08;12.45;;;;;;;;;;5061144;28;20166;-72
2021/07/11 01:35:23;;;;;;;15.07;11.82;;;;;;;;;;5066206;28;21397;-72
2021/07/11 01:37:51;;;;;;;15.48;12.88;;;;;;;;;;5065976;28;20050;-71
2021/07/11 01:40:17;;;;;;;20.35;13.00;;;;;;;;;;5066849;28;20048;-71
2021/07/11 01:42:43;;;;;;;16.92;12.38;;;;;;;;;;5067941;28;20454;-72
2021/07/11 01:45:10;;;;;;;13.85;12.00;;;;;;;;;;5064407;28;20041;-71
2021/07/11 01:47:37;;;;;;;16.90;12.07;;;;;;;;;;5048565;28;20056;-71
2021/07/11 01:50:05;;;;;;;15.90;13.52;;;;;;;;;;5063397;28;20044;-72
2021/07/11 01:52:31;;;;;;;19.00;12.73;;;;;;;;;;5063999;28;20048;-72
2021/07/11 01:54:57;;;;;;;19.48;14.27;;;;;;;;;;5050295;28;20032;-72
2021/07/11 01:57:24;;;;;;;17.52;13.95;;;;;;;;;;5065702;28;20044;-71
2021/07/11 01:59:50;;;;;;;16.48;13.18;;;;;;;;;;5065170;28;20059;-71
2021/07/11 02:02:17;;;;;;;18.25;12.73;;;;;;;;;;5065162;28;20051;-71
2021/07/11 02:04:44;;;;;;;16.98;13.52;;;;;;;;;;5059325;28;20079;-72
2021/07/11 02:07:10;;;;;;;15.90;13.27;;;;;;;;;;5056866;28;20400;-71
2021/07/11 02:09:36;;;;;;;16.02;12.98;;;;;;;;;;5062642;28;20064;-71
2021/07/11 02:12:05;;;;;;;17.30;12.80;;;;;;;;;;5063866;28;20049;-71
2021/07/11 02:14:32;;;;;;;19.83;14.13;;;;;;;;;;5061831;28;20064;-71
2021/07/11 02:17:09;;;;;;;18.13;14.27;;;;;;;;;;5059422;28;20094;-72
2021/07/11 02:19:37;;;;;;;16.25;13.10;;;;;;;;;;5058929;28;20064;-72
2021/07/11 02:22:04;;;;;;;17.85;14.35;;;;;;;;;;5061192;28;20128;-71
2021/07/11 02:24:35;;;;;;;17.48;13.70;;;;;;;;;;5063442;28;20048;-71
2021/07/11 02:27:02;;;;;;;20.88;14.55;;;;;;;;;;5064322;28;20044;-71
2021/07/11 02:29:34;;;;;;;22.02;15.73;;;;;;;;;;5063962;28;20045;-71
2021/07/11 02:32:03;;;;;;;19.05;14.48;;;;;;;;;;5062656;28;20036;-71
2021/07/11 02:34:29;;;;;;;19.13;13.70;;;;;;;;;;5063994;28;20054;-71
2021/07/11 02:36:56;;;;;;;20.42;14.20;;;;;;;;;;5067057;28;20078;-71
2021/07/11 02:39:22;;;;;;;18.83;14.15;;;;;;;;;;5048837;28;20037;-72
2021/07/11 02:41:51;;;;;;;15.75;13.55;;;;;;;;;;5065178;28;20087;-71
2021/07/11 02:44:18;;;;;;;17.40;13.88;;;;;;;;;;5061388;28;20106;-72
2021/07/11 02:46:46;;;;;;;17.88;14.85;;;;;;;;;;5057291;28;20053;-71
2021/07/11 02:49:14;;;;;;;18.05;13.50;;;;;;;;;;5066054;28;20040;-71
2021/07/11 02:51:42;;;;;;;18.88;13.32;;;;;;;;;;5065037;28;20041;-71
2021/07/11 02:54:09;;;;;;;18.63;14.18;;;;;;;;;;5064560;28;20043;-71
2021/07/11 02:56:38;;;;;;;18.83;14.40;;;;;;;;;;5065827;28;20068;-71
2021/07/11 02:59:06;;;;;;;16.55;13.27;;;;;;;;;;5064818;28;20053;-72
2021/07/11 03:01:33;;;;;;;21.15;13.48;;;;;;;;;;5059381;28;20067;-71
2021/07/11 03:04:00;;;;;;;16.58;13.60;;;;;;;;;;5057780;28;20147;-72
2021/07/11 03:06:26;;;;;;;16.73;13.32;;;;;;;;;;5060259;28;20040;-71
2021/07/11 03:08:53;;;;;;;16.23;13.20;;;;;;;;;;5061442;28;20123;-71
2021/07/11 03:11:19;;;;;;;18.05;14.05;;;;;;;;;;5063339;28;20105;-71
2021/07/11 03:13:46;;;;;;;18.10;13.68;;;;;;;;;;5065686;28;20047;-72
2021/07/11 03:16:13;;;;;;;14.93;11.95;;;;;;;;;;5065846;28;20075;-72
2021/07/11 03:18:39;;;;;;;18.73;13.10;;;;;;;;;;5062027;28;20033;-71
2021/07/11 03:21:07;;;;;;;14.93;12.30;;;;;;;;;;5062815;28;20060;-71
2021/07/11 03:23:35;;;;;;;15.95;12.10;;;;;;;;;;5061303;28;20453;-71
2021/07/11 03:26:01;;;;;;;19.02;13.02;;;;;;;;;;5060798;28;20104;-71
2021/07/11 03:28:29;;;;;;;13.50;10.85;;;;;;;;;;5062665;28;20036;-72
2021/07/11 03:30:56;;;;;;;15.50;12.57;;;;;;;;;;5063550;28;20447;-71
2021/07/11 03:33:23;;;;;;;20.33;13.40;;;;;;;;;;5064295;28;20048;-71
2021/07/11 03:35:51;;;;;;;19.67;13.05;;;;;;;;;;5063799;28;20064;-72
2021/07/11 03:38:19;;;;;;;17.73;13.05;;;;;;;;;;5061590;28;20094;-71
2021/07/11 03:40:47;;;;;;;17.20;12.43;;;;;;;;;;5057361;28;20465;-72
2021/07/11 03:43:15;;;;;;;15.98;11.73;;;;;;;;;;5058268;28;20073;-71
2021/07/11 03:45:43;;;;;;;17.27;12.63;;;;;;;;;;5062964;28;20040;-72
2021/07/11 03:48:13;;;;;;;20.10;13.38;;;;;;;;;;5062022;28;20093;-71
2021/07/11 03:50:41;;;;;;;18.67;13.38;;;;;;;;;;5060081;28;20045;-72
2021/07/11 03:53:08;;;;;;;20.23;13.60;;;;;;;;;;5060810;28;20056;-72
2021/07/11 03:55:36;;;;;;;16.98;13.63;;;;;;;;;;5061030;28;20193;-72
2021/07/11 03:58:03;;;;;;;17.65;12.93;;;;;;;;;;5045573;28;20534;-71
2021/07/11 04:00:29;;;;;;;16.17;13.30;;;;;;;;;;5062135;28;20051;-71
2021/07/11 04:02:57;;;;;;;17.75;13.85;;;;;;;;;;5063888;28;20056;-71
2021/07/11 04:05:27;;;;;;;17.33;13.73;;;;;;;;;;5038498;28;20048;-72
2021/07/11 04:07:54;;;;;;;17.67;13.45;;;;;;;;;;5059698;28;20048;-70
2021/07/11 04:10:24;;;;;;;16.80;13.85;;;;;;;;;;5064740;28;20040;-71
2021/07/11 04:12:51;;;;;;;16.95;14.10;;;;;;;;;;5045053;28;20119;-72
2021/07/11 04:15:17;;;;;;;16.63;13.30;;;;;;;;;;5062485;28;20159;-72
2021/07/11 04:17:46;;;;;;;20.10;13.90;;;;;;;;;;5061429;28;20067;-71
2021/07/11 04:20:13;;;;;;;19.40;13.73;;;;;;;;;;5059705;28;20116;-72
2021/07/11 04:22:40;;;;;;;19.42;13.30;;;;;;;;;;5058296;28;20144;-71
2021/07/11 04:25:07;;;;;;;20.95;14.48;;;;;;;;;;5060447;28;20058;-70
2021/07/11 04:27:34;;;;;;;18.17;14.10;;;;;;;;;;5062437;28;20380;-71
2021/07/11 04:30:00;;;;;;;18.23;13.63;;;;;;;;;;5062220;28;20135;-71
2021/07/11 04:32:26;;;;;;;16.77;13.18;;;;;;;;;;5063742;28;20044;-72
2021/07/11 04:34:53;;;;;;;17.35;13.40;;;;;;;;;;5061922;28;20124;-72
2021/07/11 04:37:19;;;;;;;18.85;13.52;;;;;;;;;;5062613;28;20117;-71
2021/07/11 04:39:45;;;;;;;16.92;13.57;;;;;;;;;;5049509;28;20368;-71
2021/07/11 04:42:12;;;;;;;16.55;13.68;;;;;;;;;;5059506;28;20469;-71
2021/07/11 04:44:41;;;;;;;17.73;14.57;;;;;;;;;;5061711;28;20432;-71
2021/07/11 04:47:08;;;;;;;18.00;13.90;;;;;;;;;;5061363;28;20055;-71
2021/07/11 04:49:34;;;;;;;18.20;14.35;;;;;;;;;;5062729;28;20065;-71
2021/07/11 04:52:03;;;;;;;15.57;13.63;;;;;;;;;;5052099;28;20033;-71
2021/07/11 04:54:29;;;;;;;16.85;12.77;;;;;;;;;;5055225;28;20374;-71
2021/07/11 04:56:56;;;;;;;21.40;13.38;;;;;;;;;;5063628;28;20068;-71
2021/07/11 04:59:22;;;;;;;16.20;12.50;;;;;;;;;;5021902;28;1110166;-71
2021/07/11 05:01:48;;;;;;;15.23;12.65;;;;;;;;;;5058705;28;20362;-71
2021/07/11 05:04:15;;;;;;;16.92;12.45;;;;;;;;;;5058080;28;20049;-71
2021/07/11 05:06:41;;;;;;;15.07;12.30;;;;;;;;;;5062060;28;20114;-72
2021/07/11 05:09:08;;;;;;;13.90;12.40;;;;;;;;;;5060077;28;20044;-71
2021/07/11 05:11:34;;;;;;;14.20;11.13;;;;;;;;;;5056424;28;20052;-71
2021/07/11 05:14:01;;;;;;;13.25;11.85;;;;;;;;;;5055395;28;20419;-71
2021/07/11 05:16:28;;;;;;;14.63;11.70;;;;;;;;;;5058371;28;20061;-71
2021/07/11 05:18:54;;;;;;;14.70;11.38;;;;;;;;;;5058662;28;20125;-71
2021/07/11 05:21:20;;;;;;;16.98;12.38;;;;;;;;;;5055600;28;20036;-71
2021/07/11 05:23:47;;;;;;;14.27;11.57;;;;;;;;;;5060324;28;20356;-71
2021/07/11 05:26:13;;;;;;;15.30;10.70;;;;;;;;;;5064747;28;20136;-71
2021/07/11 05:28:40;;;;;;;16.23;10.88;;;;;;;;;;5055610;28;20049;-71
2021/07/11 05:31:07;;;;;;;18.67;12.25;;;;;;;;;;5057785;28;20480;-71
2021/07/11 05:33:34;;;;;;;14.15;10.95;;;;;;;;;;5064312;28;20036;-71
2021/07/11 05:36:00;;;;;;;16.10;10.23;;;;;;;;;;5063406;28;20037;-71
2021/07/11 05:38:27;;;;;;;16.98;11.25;;;;;;;;;;5046941;28;20056;-72
2021/07/11 05:40:53;;;;;;;13.02;10.43;;;;;;;;;;5058076;28;20112;-72
2021/07/11 05:43:19;;;;;;;15.00;10.75;;;;;;;;;;5062502;28;20041;-71
2021/07/11 05:45:46;;;;;;;14.75;9.73;;;;;;;;;;5066708;28;20115;-71
2021/07/11 05:48:12;;;;;;;14.20;10.25;;;;;;;;;;5066916;28;20036;-71
2021/07/11 05:50:39;;;;;;;14.88;11.18;;;;;;;;;;5062790;28;20045;-71
2021/07/11 05:53:09;;;;;;;14.80;11.38;;;;;;;;;;5060608;28;20492;-71
2021/07/11 05:55:36;;;;;;;13.60;10.02;;;;;;;;;;5060103;28;20496;-71
2021/07/11 05:58:04;;;;;;;13.25;10.32;;;;;;;;;;5061122;28;20072;-72
2021/07/11 06:00:30;;;;;;;12.95;10.70;;;;;;;;;;5063204;28;20127;-71
2021/07/11 06:02:56;;;;;;;16.48;11.10;;;;;;;;;;5062143;28;20085;-71
2021/07/11 06:05:23;;;;;;;15.00;11.30;;;;;;;;;;5058726;28;20059;-71
2021/07/11 06:07:49;;;;;;;16.10;11.45;;;;;;;;;;5058424;28;20075;-71
2021/07/11 06:10:16;;;;;;;13.43;12.02;;;;;;;;;;5060686;28;20045;-71
2021/07/11 06:12:43;;;;;;;15.10;10.68;;;;;;;;;;5045102;28;20477;-72
2021/07/11 06:15:10;;;;;;;15.25;11.27;;;;;;;;;;5062089;28;20045;-71
2021/07/11 06:17:36;;;;;;;16.13;12.57;;;;;;;;;;5045287;28;20040;-71
2021/07/11 06:20:04;;;;;;;13.50;11.52;;;;;;;;;;5064257;28;20051;-71
2021/07/11 06:22:31;;;;;;;15.02;11.82;;;;;;;;;;5063556;28;20052;-71
2021/07/11 06:24:57;;;;;;;16.38;11.00;;;;;;;;;;5044540;28;20545;-71
2021/07/11 06:27:23;;;;;;;15.10;11.68;;;;;;;;;;5045555;28;20431;-71
2021/07/11 06:29:50;;;;;;;16.67;12.45;;;;;;;;;;5035835;28;20143;-72
2021/07/11 06:32:17;;;;;;;13.60;11.32;;;;;;;;;;5061301;28;20068;-72
2021/07/11 06:34:43;;;;;;;13.82;11.15;;;;;;;;;;5062314;28;20129;-72
2021/07/11 06:37:09;;;;;;;14.15;10.27;;;;;;;;;;5063277;28;20048;-71
2021/07/11 06:39:35;;;;;;;14.45;11.02;;;;;;;;;;5043700;28;20181;-71
2021/07/11 06:42:02;;;;;;;11.95;10.30;;;;;;;;;;5060899;28;20086;-72
2021/07/11 06:44:28;;;;;;;14.70;10.05;;;;;;;;;;5062616;28;20115;-71
2021/07/11 06:46:54;;;;;;;11.98;9.90;;;;;;;;;;5049265;28;20092;-72
2021/07/11 06:49:20;;;;;;;14.25;9.75;;;;;;;;;;5066516;28;20052;-74
2021/07/11 06:51:47;;;;;;;14.60;9.48;;;;;;;;;;5064458;28;20094;-74
2021/07/11 06:54:13;;;;;;;12.85;8.70;;;;;;;;;;5062508;28;20452;-74
2021/07/11 06:56:39;;;;;;;11.45;9.75;;;;;;;;;;5060147;28;20493;-74
2021/07/11 06:59:05;;;;;;;12.68;9.10;;;;;;;;;;5042825;28;20113;-74
2021/07/11 07:01:32;;;;;;;12.95;9.10;;;;;;;;;;5056687;28;20573;-74
2021/07/11 07:03:58;;;;;;;11.30;9.02;;;;;;;;;;5061693;28;20036;-74
2021/07/11 07:06:25;;;;;;;11.15;8.55;;;;;;;;;;5065517;28;20037;-74
2021/07/11 07:08:51;;;;;;;11.30;9.05;;;;;;;;;;5062727;28;20460;-74
2021/07/11 07:11:17;;;;;;;13.20;8.93;;;;;;;;;;5042361;28;20046;-74
2021/07/11 07:13:44;;;;;;;13.70;8.73;;;;;;;;;;5064715;28;20060;-74
2021/07/11 07:16:10;;;;;;;11.65;9.05;;;;;;;;;;5063566;28;20424;-74
2021/07/11 07:18:36;;;;;;;12.50;10.02;;;;;;;;;;5061156;28;20511;-74
2021/07/11 07:21:03;;;;;;;14.23;9.27;;;;;;;;;;5062096;28;20048;-74
2021/07/11 07:23:29;;;;;;;13.68;9.27;;;;;;;;;;5057311;28;20064;-74
2021/07/11 07:25:55;;;;;;;14.00;9.38;;;;;;;;;;5062740;28;20104;-74
2021/07/11 07:28:21;;;;;;;13.77;10.38;;;;;;;;;;5061192;28;20040;-74
2021/07/11 07:30:49;;;;;;;12.40;9.90;;;;;;;;;;5058042;28;20048;-74
2021/07/11 07:33:15;;;;;;;14.43;8.73;;;;;;;;;;5062183;28;20037;-74
2021/07/11 07:35:41;;;;;;;12.77;9.10;;;;;;;;;;5061266;28;20062;-74
2021/07/11 07:38:07;;;;;;;13.02;9.50;;;;;;;;;;5043726;28;20420;-75
2021/07/11 07:40:34;;;;;;;11.95;10.05;;;;;;;;;;5058986;28;20190;-74
2021/07/11 07:43:01;;;;;;;12.23;9.40;;;;;;;;;;5066289;28;20052;-74
2021/07/11 07:45:27;;;;;;;13.68;9.40;;;;;;;;;;5053985;28;20140;-72
2021/07/11 07:47:54;;;;;;;13.23;10.52;;;;;;;;;;5064533;28;20451;-71
2021/07/11 07:50:20;;;;;;;11.82;9.35;;;;;;;;;;5069772;28;20059;-71
2021/07/11 07:52:46;;;;;;;12.50;10.48;;;;;;;;;;5070270;28;20092;-71
2021/07/11 07:55:13;;;;;;;14.52;9.90;;;;;;;;;;5070063;28;20036;-71
2021/07/11 07:57:39;;;;;;;13.35;10.48;;;;;;;;;;5069145;28;20455;-71
2021/07/11 08:00:09;;;;;;;12.75;9.43;;;;;;;;;;5038996;28;20060;-71
2021/07/11 08:02:35;;;;;;;17.23;10.40;;;;;;;;;;5050067;28;20444;-71
2021/07/11 08:05:01;;;;;;;12.95;10.13;;;;;;;;;;5049267;28;20069;-71
2021/07/11 08:07:28;;;;;;;12.90;10.25;;;;;;;;;;5050057;28;20441;-71
2021/07/11 08:09:55;;;;;;;13.23;10.68;;;;;;;;;;5028086;28;20064;-71
2021/07/11 08:12:21;;;;;;;13.77;10.48;;;;;;;;;;5050300;28;20051;-71
2021/07/11 08:14:47;;;;;;;18.75;10.18;;;;;;;;;;5049971;28;20465;-71
2021/07/11 08:17:14;;;;;;;12.70;10.52;;;;;;;;;;5027642;28;20536;-71
2021/07/11 08:19:40;;;;;;;12.77;10.23;;;;;;;;;;5040576;28;20048;-71
2021/07/11 08:22:06;;;;;;;12.93;10.00;;;;;;;;;;5049843;28;20052;-71
2021/07/11 08:24:32;;;;;;;13.80;10.27;;;;;;;;;;5048987;28;20176;-71
2021/07/11 08:26:59;;;;;;;12.98;9.70;;;;;;;;;;5049800;28;20045;-71
2021/07/11 08:29:25;;;;;;;12.85;10.07;;;;;;;;;;5049494;28;20083;-71
2021/07/11 08:31:51;;;;;;;11.68;9.82;;;;;;;;;;5048880;28;20037;-71
2021/07/11 08:34:18;;;;;;;11.23;9.70;;;;;;;;;;5049646;28;20431;-71
2021/07/11 08:36:44;;;;;;;12.82;8.88;;;;;;;;;;5045440;28;20100;-71
2021/07/11 08:39:10;;;;;;;12.20;9.93;;;;;;;;;;5041480;28;20086;-71
2021/07/11 08:41:37;;;;;;;10.27;8.52;;;;;;;;;;5049529;28;20056;-71
2021/07/11 08:44:03;;;;;;;15.88;8.80;;;;;;;;;;5049605;28;20489;-71
2021/07/11 08:46:30;;;;;;;13.07;9.55;;;;;;;;;;5049315;28;20117;-71
2021/07/11 08:48:57;;;;;;;11.98;9.45;;;;;;;;;;5049685;28;20140;-71
2021/07/11 08:51:23;;;;;;;13.23;9.88;;;;;;;;;;5049545;28;20085;-71
2021/07/11 08:53:49;;;;;;;13.52;10.25;;;;;;;;;;5049090;28;20087;-71
2021/07/11 08:56:18;;;;;;;14.40;9.18;;;;;;;;;;5049518;28;20041;-71
2021/07/11 08:58:47;;;;;;;13.77;10.15;;;;;;;;;;5050900;28;20083;-71
2021/07/11 09:01:14;;;;;;;10.73;8.60;;;;;;;;;;5069142;28;20158;-71
2021/07/11 09:03:40;;;;;;;12.48;8.73;;;;;;;;;;5069579;28;20037;-71
2021/07/11 09:06:06;;;;;;;9.55;7.78;;;;;;;;;;5068915;28;20048;-72
2021/07/11 09:08:33;;;;;;;10.73;8.77;;;;;;;;;;5070681;28;20059;-71
2021/07/11 09:11:02;;;;;;;12.18;9.15;;;;;;;;;;5073283;28;20101;-71
2021/07/11 09:13:31;;;;;;;11.85;9.07;;;;;;;;;;5072576;28;20045;-71
2021/07/11 09:15:59;;;;;;;12.07;9.70;;;;;;;;;;5073193;28;20042;-71
2021/07/11 09:18:30;;;;;;;12.18;9.50;;;;;;;;;;5073053;28;20044;-72
2021/07/11 09:20:58;;;;;;;12.23;8.68;;;;;;;;;;5072380;28;20048;-72
2021/07/11 09:23:25;;;;;;;11.65;8.40;;;;;;;;;;5073110;28;20391;-71
2021/07/11 09:26:05;;;;;;;11.35;8.73;;;;;;;;;;5072782;28;20063;-71
2021/07/11 09:28:32;;;;;;;13.43;9.38;;;;;;;;;;5072851;28;20044;-71
2021/07/11 09:31:01;;;;;;;13.38;9.52;;;;;;;;;;5072750;28;20048;-71
2021/07/11 09:33:27;;;;;;;11.85;9.85;;;;;;;;;;5073153;28;20045;-72
2021/07/11 09:36:03;;;;;;;13.02;9.27;;;;;;;;;;5072107;28;20048;-71
2021/07/11 09:38:29;;;;;;;10.70;8.75;;;;;;;;;;5060299;28;20052;-71
2021/07/11 09:40:56;;;;;;;11.32;9.43;;;;;;;;;;5072980;28;20167;-71
2021/07/11 09:43:22;;;;;;;12.90;9.90;;;;;;;;;;5071918;28;20082;-71
2021/07/11 09:45:48;;;;;;;12.80;8.35;;;;;;;;;;5073008;28;20064;-72
2021/07/11 09:48:15;;;;;;;13.48;9.07;;;;;;;;;;5050791;28;20052;-72
2021/07/11 09:50:41;;;;;;;9.27;8.05;;;;;;;;;;5044240;28;20036;-71
2021/07/11 09:53:08;;;;;;;11.98;8.30;;;;;;;;;;5072785;28;20055;-71
2021/07/11 09:55:36;;;;;;;10.13;8.35;;;;;;;;;;5071896;28;20045;-72
2021/07/11 09:58:03;;;;;;;12.20;8.95;;;;;;;;;;5072501;28;20052;-71
2021/07/11 10:00:32;;;;;;;11.00;9.18;;;;;;;;;;5072273;28;20059;-72
2021/07/11 10:03:00;;;;;;;11.68;8.15;;;;;;;;;;5070235;28;20076;-72
2021/07/11 10:05:27;;;;;;;11.90;8.85;;;;;;;;;;5072240;28;20056;-72
2021/07/11 10:07:54;;;;;;;12.57;8.68;;;;;;;;;;5072465;28;20100;-71
2021/07/11 10:10:22;;;;;;;13.88;9.10;;;;;;;;;;5071772;28;20045;-71
2021/07/11 10:12:49;;;;;;;11.48;9.60;;;;;;;;;;5072394;28;20419;-71
2021/07/11 10:15:16;;;;;;;10.88;9.10;;;;;;;;;;5072053;28;20480;-71
2021/07/11 10:17:45;;;;;;;13.32;8.98;;;;;;;;;;5071253;28;20446;-71
2021/07/11 10:20:13;;;;;;;8.68;7.72;;;;;;;;;;5071744;28;20051;-71
2021/07/11 10:22:46;;;;;;;10.23;7.43;;;;;;;;;;5071957;28;20046;-71
2021/07/11 10:25:14;;;;;;;11.52;7.60;;;;;;;;;;5071244;28;20059;-72
2021/07/11 10:27:40;;;;;;;9.93;7.50;;;;;;;;;;5071822;28;20044;-72
2021/07/11 10:30:06;;;;;;;10.32;6.57;;;;;;;;;;5071941;28;20470;-71
2021/07/11 10:32:33;;;;;;;12.50;7.97;;;;;;;;;;5050136;28;20122;-72
2021/07/11 10:35:09;;;;;;;10.05;7.15;;;;;;;;;;5064400;28;20128;-75
2021/07/11 10:37:41;;;;;;;8.27;6.63;;;;;;;;;;5063572;28;20363;-73
2021/07/11 10:40:09;;;;;;;11.25;7.40;;;;;;;;;;5059652;28;20044;-73
2021/07/11 10:42:35;;;;;;;8.45;7.22;;;;;;;;;;5065634;28;20045;-73
2021/07/11 10:45:03;;;;;;;10.02;7.68;;;;;;;;;;5061592;28;20485;-73
2021/07/11 10:47:30;;;;;;;10.98;7.18;;;;;;;;;;5059914;28;20056;-72
2021/07/11 10:49:56;;;;;;;11.05;7.70;;;;;;;;;;5066201;28;20054;-73
2021/07/11 10:52:23;;;;;;;9.85;7.45;;;;;;;;;;5057302;28;20041;-72
2021/07/11 10:54:51;;;;;;;12.45;7.43;;;;;;;;;;5061583;28;20040;-72
2021/07/11 10:57:29;;;;;;;10.75;7.82;;;;;;;;;;5067935;28;20044;-72
2021/07/11 10:59:55;;;;;;;10.68;7.22;;;;;;;;;;5066463;28;20044;-73
2021/07/11 11:02:23;;;;;;;10.38;7.43;;;;;;;;;;5066330;28;20041;-73
2021/07/11 11:05:12;;;;;;;10.43;7.10;;;;;;;;;;5054060;28;20036;-73
2021/07/11 11:07:44;;;;;;;10.15;7.10;;;;;;;;;;5053801;28;20063;-72
2021/07/11 11:10:17;;;;;;;10.07;8.00;;;;;;;;;;5058912;28;20041;-72
2021/07/11 11:12:44;;;;;;;14.75;8.65;;;;;;;;;;5054523;28;20085;-72
2021/07/11 11:15:14;;;;;;;10.73;8.18;;;;;;;;;;5051225;28;20057;-72
2021/07/11 11:17:41;;;;;;;12.40;9.02;;;;;;;;;;5050952;28;20131;-72
2021/07/11 11:20:13;;;;;;;13.23;8.60;;;;;;;;;;5048105;28;20095;-72
2021/07/11 11:22:39;;;;;;;11.18;8.82;;;;;;;;;;5045905;28;20037;-73
2021/07/11 11:25:06;;;;;;;12.00;7.82;;;;;;;;;;5046219;28;20043;-72
2021/07/11 11:27:34;;;;;;;12.95;7.40;;;;;;;;;;5046019;28;20072;-72
2021/07/11 11:30:12;;;;;;;12.70;8.13;;;;;;;;;;5043596;28;20033;-72
2021/07/11 11:32:38;;;;;;;9.27;7.47;;;;;;;;;;5047421;28;20047;-72
2021/07/11 11:35:05;;;;;;;8.57;6.95;;;;;;;;;;5047833;28;20067;-72
2021/07/11 11:37:33;;;;;;;10.07;6.55;;;;;;;;;;5047880;28;20487;-73
2021/07/11 11:40:06;;;;;;;10.88;7.35;;;;;;;;;;5049933;28;20043;-73
2021/07/11 11:42:33;;;;;;;9.95;6.90;;;;;;;;;;5029170;28;20124;-72
2021/07/11 11:45:07;;;;;;;11.05;7.07;;;;;;;;;;5045795;28;20047;-72
2021/07/11 11:47:35;;;;;;;10.65;7.00;;;;;;;;;;5045500;28;20512;-73
2021/07/11 11:50:19;;;;;;;12.02;7.50;;;;;;;;;;5045669;28;20089;-72
2021/07/11 11:52:46;;;;;;;10.30;7.57;;;;;;;;;;5049834;28;20163;-72
2021/07/11 11:55:13;;;;;;;8.57;6.60;;;;;;;;;;5047305;28;20056;-72
2021/07/11 11:57:41;;;;;;;15.70;7.13;;;;;;;;;;5051673;28;20068;-72
2021/07/11 12:00:14;;;;;;;8.30;7.00;;;;;;;;;;5052109;28;20044;-72
2021/07/11 12:02:41;;;;;;;12.43;7.43;;;;;;;;;;5056057;28;20098;-72
2021/07/11 12:05:08;;;;;;;9.82;7.00;;;;;;;;;;5034799;28;20049;-72
2021/07/11 12:07:34;;;;;;;10.15;7.05;;;;;;;;;;5059609;28;20434;-72
2021/07/11 12:10:00;;;;;;;10.38;6.80;;;;;;;;;;5060186;28;20047;-72
2021/07/11 12:12:26;;;;;;;14.27;6.90;;;;;;;;;;5061106;28;20135;-72
2021/07/11 12:14:53;;;;;;;9.70;6.35;;;;;;;;;;5061975;28;20060;-72
2021/07/11 12:17:20;;;;;;;16.45;7.03;;;;;;;;;;5050514;28;20044;-71
2021/07/11 12:19:49;;;;;;;8.73;6.28;;;;;;;;;;5062087;28;20062;-73
2021/07/11 12:22:16;;;;;;;8.10;6.15;;;;;;;;;;5061699;28;20436;-73
2021/07/11 12:24:42;;;;;;;10.52;5.80;;;;;;;;;;5057880;28;20056;-73
2021/07/11 12:27:09;;;;;;;8.55;5.72;;;;;;;;;;5061662;28;20040;-73
2021/07/11 12:29:35;;;;;;;9.80;6.25;;;;;;;;;;5061538;28;20404;-73
2021/07/11 12:32:03;;;;;;;10.18;6.38;;;;;;;;;;5056482;28;20064;-73
2021/07/11 12:59:40;;;;;;;11.40;6.43;;;;;;;;;;5123966;27;1380272;-73
2021/07/11 13:02:11;;;;;;;8.93;6.53;;;;;;;;;;5136735;27;20059;-74
2021/07/11 13:04:38;;;;;;;9.73;5.75;;;;;;;;;;5154580;27;20064;-74
2021/07/11 13:07:06;;;;;;;10.52;6.43;;;;;;;;;;5144005;27;20870;-74
2021/07/11 13:09:34;;;;;;;14.68;5.95;;;;;;;;;;5153754;27;20099;-72
2021/07/11 13:12:00;;;;;;;9.00;6.00;;;;;;;;;;5135946;27;20042;-72
2021/07/11 13:14:27;;;;;;;10.32;6.05;;;;;;;;;;5159415;27;20129;-72
2021/07/11 13:16:53;;;;;;;8.20;5.43;;;;;;;;;;5153597;27;20504;-72
2021/07/11 13:19:19;;;;;;;9.65;6.28;;;;;;;;;;5148671;27;20150;-72
2021/07/11 13:21:46;;;;;;;10.52;6.30;;;;;;;;;;5132119;27;20031;-72
2021/07/11 13:24:12;;;;;;;13.20;6.72;;;;;;;;;;5154701;27;20081;-72
2021/07/11 13:26:39;;;;;;;9.27;6.22;;;;;;;;;;5145899;27;20038;-72
2021/07/11 13:29:05;;;;;;;9.60;6.57;;;;;;;;;;5148371;27;20510;-72
2021/07/11 13:31:33;;;;;;;9.45;6.55;;;;;;;;;;5144694;27;20043;-72
2021/07/11 13:34:01;;;;;;;10.70;7.45;;;;;;;;;;5147944;27;20515;-72
2021/07/11 13:36:27;;;;;;;12.15;6.72;;;;;;;;;;5128988;27;20126;-72
2021/07/11 13:38:54;;;;;;;9.95;6.28;;;;;;;;;;5147300;27;20054;-72
2021/07/11 13:41:20;;;;;;;10.95;6.88;;;;;;;;;;5128842;27;20102;-72
2021/07/11 13:43:47;;;;;;;10.43;6.80;;;;;;;;;;5144860;27;20091;-72
2021/07/11 13:46:14;;;;;;;10.63;6.38;;;;;;;;;;5145114;27;20039;-72
2021/07/11 13:48:40;;;;;;;9.10;6.10;;;;;;;;;;5127536;27;20394;-72
2021/07/11 13:51:08;;;;;;;11.95;6.47;;;;;;;;;;5132961;27;20432;-72
2021/07/11 13:53:34;;;;;;;10.98;5.90;;;;;;;;;;5148886;27;20038;-72
2021/07/11 13:56:00;;;;;;;10.02;6.20;;;;;;;;;;5146807;27;20035;-72
2021/07/11 13:58:26;;;;;;;11.77;6.72;;;;;;;;;;5148095;27;20086;-71
2021/07/11 14:00:53;;;;;;;9.73;6.97;;;;;;;;;;5148817;27;20039;-72
2021/07/11 14:03:20;;;;;;;8.50;6.35;;;;;;;;;;5146751;27;20035;-72
2021/07/11 14:05:46;;;;;;;8.88;6.38;;;;;;;;;;5148983;27;20031;-72
2021/07/11 14:08:12;;;;;;;8.82;5.97;;;;;;;;;;5148034;27;20050;-72
2021/07/11 14:10:38;;;;;;;8.43;5.65;;;;;;;;;;5118070;27;20606;-72
2021/07/11 14:13:05;;;;;;;10.85;6.25;;;;;;;;;;5133510;27;20118;-72
2021/07/11 14:15:31;;;;;;;7.35;5.50;;;;;;;;;;5132828;27;20051;-72
2021/07/11 14:17:57;;;;;;;10.90;5.75;;;;;;;;;;5114654;27;20039;-72
2021/07/11 14:20:24;;;;;;;13.32;6.90;;;;;;;;;;5134275;27;20050;-72
2021/07/11 14:22:51;;;;;;;8.98;6.63;;;;;;;;;;5132901;27;20119;-72
2021/07/11 14:25:17;;;;;;;8.77;6.18;;;;;;;;;;5134086;27;20481;-71
2021/07/11 14:27:44;;;;;;;11.73;6.53;;;;;;;;;;5133314;27;20039;-72
2021/07/11 14:30:11;;;;;;;7.50;5.80;;;;;;;;;;5132430;27;20043;-72
2021/07/11 14:33:16;;;;;;;8.75;6.30;;;;;;;;;;5107246;27;20434;-73
2021/07/11 14:35:43;;;;;;;8.57;6.47;;;;;;;;;;5106582;28;20123;-73
2021/07/11 14:38:09;;;;;;;12.65;7.43;;;;;;;;;;5106247;28;20432;-73
2021/07/11 14:40:36;;;;;;;8.93;6.72;;;;;;;;;;5106604;28;20043;-73
2021/07/11 14:43:02;;;;;;;8.07;6.20;;;;;;;;;;5087503;28;20414;-73
2021/07/11 14:45:29;;;;;;;9.90;6.95;;;;;;;;;;5105468;28;20047;-72
2021/07/11 14:47:55;;;;;;;13.75;6.88;;;;;;;;;;5108213;28;20060;-72
2021/07/11 14:50:21;;;;;;;12.80;6.75;;;;;;;;;;5105735;28;20035;-72
2021/07/11 14:52:47;;;;;;;10.60;6.18;;;;;;;;;;5106701;28;20047;-72